メインページ
METAR-TAF:

METAR-TAF

空港 :

ヴォルゴグラード, ロシア

ヴォルゴグラード国際空港

緯度: 48-47N, 経度: 044-22E, 海抜: 145m

現時点の気象観測

当レポートは39分前の23:00(UTC)に作成
の風 10kt
気温 6°C
湿度 100%
気圧 999 hPa
視程: 7000m
高度400ftの雲は散在している
高度2300ftの千切れ雲あり, 積乱雲.
弱いにわか雨

METAR: URWW 232300Z 09005MPS 7000 -SHRA SCT004 BKN023CB 06/06 Q0999 R06/290260 TEMPO -TSRA

時間: 02:39 (23:39 UTC)

予報

当レポートは3時間39分前の20:00(UTC)に作成
予報は23日の 21時(UTC)から 24日の 06時(UTC)まで有効
北東の風 12kt、最大23ktの突風を伴う
視程: 2100m
高度700ftの千切れ雲あり
高度2000ftの千切れ雲あり, 積乱雲.
高度10000ftの千切れ雲あり
弱いにわか雨
23日の 21時(UTC)から 24日の 03時(UTC)まで一時的に
東/北東の風 19kt、最大31ktの突風を伴う
視程: 1000m
高度300ftの千切れ雲あり
高度2000ftの千切れ雲あり, 積乱雲.
高度10000ftの千切れ雲あり
激しい雷雨, 雨

TAF: URWW 232000Z 2321/2406 04006G12MPS 2100 -SHRA BKN007 BKN020CB BKN100 TEMPO 2321/2403 07010G16MPS 1000 TSRA BKN003 BKN020CB BKN100

4,000以上の空港の気象観測と天気予報(METAR報とTAF報)

利用可能な観測所は地図上に黄色い丸と赤い丸で示す。

丸の上にカーソルを重ねると観測所名を参照できる。

次にクリックすると気象観測と天気予報を参照できる。

マップの切り替え:黒色「×」印の緑ボタンをクリックして拡大、「-」印の緑ボタンをクリックして縮小、緑色の三角印をクリックして隣りの地図に切り替え


METAR-TAF: